Time;durP1;ratioP1;P1;durP2;ratioP2;P2;SDS_P1;SDS_P2;PMS_P1;PMS_P2;Temp;Humidity;BMP_temperature;BMP_pressure;BME280_temperature;BME280_humidity;BME280_pressure;Samples;Min_cycle;Max_cycle;Signal;HPM_P1;HPM_P2
2021/04/29 00:01:56;;;;;;;3.58;2.33;;;12.30;71.30;;;;;;4965931;28;20407;-74
2021/04/29 00:04:22;;;;;;;2.97;2.40;;;12.20;71.60;;;;;;4973324;28;20109;-73
2021/04/29 00:06:48;;;;;;;2.97;2.42;;;12.30;71.20;;;;;;4959470;28;20133;-74
2021/04/29 00:09:14;;;;;;;2.65;2.45;;;12.20;71.80;;;;;;4971227;28;20117;-74
2021/04/29 00:11:40;;;;;;;3.10;2.80;;;12.20;71.40;;;;;;4965534;28;20489;-74
2021/04/29 00:14:10;;;;;;;4.55;2.90;;;12.10;71.40;;;;;;4969278;28;20030;-74
2021/04/29 00:16:36;;;;;;;3.85;3.30;;;12.20;71.50;;;;;;4963627;28;20386;-74
2021/04/29 00:19:02;;;;;;;3.80;3.40;;;12.10;72.20;;;;;;4969271;28;20023;-74
2021/04/29 00:21:28;;;;;;;3.70;3.17;;;12.00;73.30;;;;;;4967015;28;20061;-74
2021/04/29 00:23:54;;;;;;;4.97;3.63;;;12.00;72.90;;;;;;4966200;28;20027;-73
2021/04/29 00:26:19;;;;;;;6.78;3.80;;;12.00;74.20;;;;;;4963408;28;20034;-74
2021/04/29 00:28:45;;;;;;;7.20;3.78;;;11.90;73.80;;;;;;4970910;28;20126;-74
2021/04/29 00:31:11;;;;;;;6.43;4.03;;;12.00;73.00;;;;;;4966091;28;20035;-75
2021/04/29 00:33:36;;;;;;;4.97;3.83;;;11.90;74.20;;;;;;4965660;28;20054;-74
2021/04/29 00:36:03;;;;;;;7.75;3.72;;;11.90;74.10;;;;;;4975343;28;20022;-74
2021/04/29 00:38:30;;;;;;;9.32;5.57;;;11.90;74.60;;;;;;4967493;28;20023;-74
2021/04/29 00:40:56;;;;;;;5.57;4.20;;;11.90;73.70;;;;;;4969888;28;20023;-75
2021/04/29 00:43:22;;;;;;;5.47;4.13;;;11.90;73.50;;;;;;4962514;28;20023;-74
2021/04/29 00:45:47;;;;;;;7.05;4.45;;;11.90;74.30;;;;;;4962504;28;20038;-74
2021/04/29 00:48:14;;;;;;;6.72;4.57;;;11.90;73.40;;;;;;4963804;28;20038;-74
2021/04/29 00:50:40;;;;;;;5.40;4.15;;;11.90;73.70;;;;;;4970579;28;20043;-74
2021/04/29 00:53:05;;;;;;;6.07;4.90;;;11.80;73.50;;;;;;4967231;28;20490;-73
2021/04/29 00:55:32;;;;;;;9.48;5.13;;;11.70;73.10;;;;;;4967942;28;20059;-72
2021/04/29 00:57:58;;;;;;;5.88;4.72;;;11.60;73.70;;;;;;4968595;28;20046;-73
2021/04/29 01:00:26;;;;;;;8.13;4.97;;;11.50;73.00;;;;;;4964808;28;20046;-74
2021/04/29 01:02:57;;;;;;;7.20;4.60;;;11.50;73.60;;;;;;4963647;28;20092;-73
2021/04/29 01:05:26;;;;;;;7.65;5.45;;;11.50;73.20;;;;;;4967519;28;20123;-74
2021/04/29 01:08:03;;;;;;;8.20;4.82;;;11.50;74.20;;;;;;4966978;28;20032;-74
2021/04/29 01:10:36;;;;;;;8.40;4.60;;;11.50;74.10;;;;;;4967563;28;20030;-74
2021/04/29 01:13:09;;;;;;;8.90;5.03;;;11.50;74.50;;;;;;4962565;28;20105;-73
2021/04/29 01:15:40;;;;;;;5.85;4.47;;;11.40;75.40;;;;;;4978249;28;20058;-74
2021/04/29 01:18:07;;;;;;;4.68;4.00;;;11.30;74.90;;;;;;4963480;28;20046;-74
2021/04/29 01:20:59;;;;;;;6.97;4.70;;;11.30;74.80;;;;;;4966117;28;20061;-74
2021/04/29 01:23:52;;;;;;;6.38;4.65;;;11.30;74.80;;;;;;4966435;28;20965;-74
2021/04/29 01:26:20;;;;;;;4.90;4.22;;;11.30;74.50;;;;;;4958132;28;20073;-74
2021/04/29 01:28:47;;;;;;;;;;;11.30;75.70;;;;;;4960890;28;20023;-74
2021/04/29 01:31:13;;;;;;;6.32;4.25;;;11.30;75.10;;;;;;4955656;28;19960;-73
2021/04/29 01:33:40;;;;;;;4.47;3.83;;;11.30;75.30;;;;;;4963987;28;20022;-74
2021/04/29 01:36:10;;;;;;;5.32;4.20;;;11.30;76.30;;;;;;4958751;28;20030;-73
2021/04/29 01:38:39;;;;;;;9.77;4.45;;;11.30;75.60;;;;;;4948410;28;20039;-74
2021/04/29 01:41:05;;;;;;;5.32;4.00;;;11.30;74.60;;;;;;4965592;28;20037;-74
2021/04/29 01:43:32;;;;;;;4.38;3.75;;;11.30;75.20;;;;;;4963606;28;20611;-73
2021/04/29 01:46:00;;;;;;;6.10;3.83;;;11.20;75.40;;;;;;4966967;28;20395;-73
2021/04/29 01:48:26;;;;;;;5.72;3.55;;;11.20;76.30;;;;;;4968971;28;20022;-74
2021/04/29 01:50:52;;;;;;;6.47;4.47;;;11.20;75.90;;;;;;4972323;28;20054;-74
2021/04/29 01:53:18;;;;;;;4.57;3.38;;;11.20;75.30;;;;;;4959914;28;20082;-74
2021/04/29 01:55:45;;;;;;;5.63;4.10;;;11.10;75.30;;;;;;4968423;28;20023;-73
2021/04/29 01:58:11;;;;;;;4.35;3.95;;;11.10;75.60;;;;;;4965984;28;20491;-73
2021/04/29 02:00:37;;;;;;;4.57;3.35;;;11.20;76.10;;;;;;4961799;28;20026;-73
2021/04/29 02:03:03;;;;;;;4.85;3.50;;;11.20;76.00;;;;;;4980230;28;20041;-74
2021/04/29 02:05:28;;;;;;;3.75;3.03;;;11.20;76.50;;;;;;4967297;28;20648;-74
2021/04/29 02:07:54;;;;;;;3.30;3.00;;;11.30;76.70;;;;;;4962036;28;20386;-73
2021/04/29 02:10:20;;;;;;;2.90;2.58;;;11.30;76.50;;;;;;4968334;28;20169;-74
2021/04/29 02:12:51;;;;;;;2.90;2.63;;;11.30;76.40;;;;;;4963515;28;20361;-73
2021/04/29 02:15:19;;;;;;;2.95;2.50;;;11.30;76.60;;;;;;4967541;28;20367;-73
2021/04/29 02:18:17;;;;;;;3.33;2.58;;;11.30;76.70;;;;;;4957445;28;20035;-73
2021/04/29 02:20:44;;;;;;;3.40;2.25;;;11.30;76.50;;;;;;4932047;28;20062;-73
2021/04/29 02:23:12;;;;;;;4.53;2.15;;;11.30;76.40;;;;;;4958322;28;20089;-74
2021/04/29 02:25:44;;;;;;;3.13;1.90;;;11.30;76.60;;;;;;4964903;28;20111;-73
2021/04/29 02:28:10;;;;;;;2.58;2.35;;;11.30;76.60;;;;;;4961405;28;20062;-74
2021/04/29 02:30:36;;;;;;;2.95;2.13;;;11.30;76.10;;;;;;4962907;28;20129;-74
2021/04/29 02:33:03;;;;;;;2.50;2.15;;;11.30;76.20;;;;;;4960654;28;20126;-73
2021/04/29 02:35:29;;;;;;;1.77;1.67;;;11.30;76.40;;;;;;4982399;28;20612;-74
2021/04/29 02:37:55;;;;;;;1.75;1.65;;;11.30;76.30;;;;;;4962605;28;20043;-74
2021/04/29 02:40:22;;;;;;;2.00;1.48;;;11.30;76.30;;;;;;4966775;28;20035;-74
2021/04/29 02:42:48;;;;;;;2.38;2.17;;;11.40;76.40;;;;;;4964869;28;20088;-74
2021/04/29 02:45:15;;;;;;;1.92;1.60;;;11.40;76.50;;;;;;4961966;28;20078;-75
2021/04/29 02:47:46;;;;;;;2.22;1.85;;;11.40;76.40;;;;;;4962675;28;20033;-74
2021/04/29 02:50:15;;;;;;;1.70;1.60;;;11.40;76.30;;;;;;4968168;28;20134;-74
2021/04/29 02:52:44;;;;;;;2.05;1.65;;;11.40;76.40;;;;;;4962940;28;20120;-73
2021/04/29 02:55:11;;;;;;;1.75;1.65;;;11.40;76.10;;;;;;4967414;28;20529;-71
2021/04/29 02:57:37;;;;;;;1.60;1.50;;;11.40;76.40;;;;;;4963970;28;20058;-74
2021/04/29 03:00:15;;;;;;;2.10;1.60;;;11.40;76.40;;;;;;4967748;28;20078;-74
2021/04/29 03:02:41;;;;;;;1.67;1.58;;;11.40;76.70;;;;;;4958921;28;20043;-74
2021/04/29 03:05:12;;;;;;;2.20;1.52;;;11.40;77.10;;;;;;4965079;28;20120;-74
2021/04/29 03:07:39;;;;;;;2.03;1.40;;;11.40;76.50;;;;;;4977387;28;20058;-73
2021/04/29 03:10:10;;;;;;;1.30;1.30;;;11.50;77.10;;;;;;4961846;28;20050;-73
2021/04/29 03:12:36;;;;;;;1.50;1.23;;;11.40;76.90;;;;;;4955374;28;20552;-73
2021/04/29 03:15:02;;;;;;;2.15;1.40;;;11.40;77.20;;;;;;4957398;28;20030;-75
2021/04/29 03:17:28;;;;;;;1.27;1.10;;;11.40;77.50;;;;;;4959251;28;20034;-74
2021/04/29 03:19:53;;;;;;;2.40;1.50;;;11.40;77.10;;;;;;4962958;28;20027;-74
2021/04/29 03:22:20;;;;;;;1.17;1.05;;;11.40;77.50;;;;;;4964593;28;20031;-74
2021/04/29 03:24:45;;;;;;;1.35;1.00;;;11.40;77.40;;;;;;4969753;28;20043;-75
2021/04/29 03:27:11;;;;;;;2.05;1.10;;;11.50;77.60;;;;;;4958696;28;20408;-75
2021/04/29 03:29:37;;;;;;;0.90;0.90;;;11.50;77.60;;;;;;4964522;28;20081;-74
2021/04/29 03:32:03;;;;;;;0.70;0.70;;;11.50;77.60;;;;;;4961191;28;20101;-75
2021/04/29 03:34:29;;;;;;;1.05;0.88;;;11.50;77.90;;;;;;4964947;28;20070;-74
2021/04/29 03:36:54;;;;;;;1.10;1.00;;;11.50;77.50;;;;;;4954346;28;20031;-74
2021/04/29 03:39:20;;;;;;;1.05;0.93;;;11.60;77.70;;;;;;4963202;28;20031;-75
2021/04/29 03:41:46;;;;;;;0.93;0.93;;;11.60;77.30;;;;;;4958621;28;20093;-73
2021/04/29 03:44:11;;;;;;;2.13;1.10;;;11.50;77.60;;;;;;4964015;28;20641;-74
2021/04/29 03:46:37;;;;;;;2.30;0.93;;;11.50;77.40;;;;;;4965435;28;20113;-73
2021/04/29 03:49:03;;;;;;;1.20;0.90;;;11.60;77.70;;;;;;4968570;28;21527;-74
2021/04/29 03:51:28;;;;;;;0.88;0.88;;;11.60;77.60;;;;;;4968657;28;20094;-74
2021/04/29 03:53:54;;;;;;;1.17;1.13;;;11.60;77.90;;;;;;4968842;28;20106;-74
2021/04/29 03:56:20;;;;;;;0.90;0.90;;;11.60;78.10;;;;;;4967257;28;20022;-74
2021/04/29 03:58:45;;;;;;;1.02;1.02;;;11.60;77.90;;;;;;4961520;28;20037;-74
2021/04/29 04:01:11;;;;;;;0.93;0.93;;;11.60;77.90;;;;;;4968075;28;20053;-74
2021/04/29 04:03:36;;;;;;;0.90;0.90;;;11.60;78.20;;;;;;4968212;28;20023;-74
2021/04/29 04:06:02;;;;;;;0.90;0.90;;;11.60;78.10;;;;;;4973702;28;20081;-74
2021/04/29 04:08:27;;;;;;;0.95;0.95;;;11.60;77.90;;;;;;4952934;28;20027;-75
2021/04/29 04:10:53;;;;;;;0.93;0.88;;;11.60;78.20;;;;;;4971658;28;20038;-74
2021/04/29 04:13:20;;;;;;;1.00;1.00;;;11.60;78.10;;;;;;4965408;28;20143;-74
2021/04/29 04:15:46;;;;;;;1.27;1.17;;;11.60;78.20;;;;;;4973095;28;20038;-74
2021/04/29 04:18:13;;;;;;;1.00;1.00;;;11.60;78.10;;;;;;4969629;28;20519;-74
2021/04/29 04:20:39;;;;;;;1.42;0.93;;;11.60;78.00;;;;;;4971362;28;20126;-74
2021/04/29 04:23:06;;;;;;;1.20;1.10;;;11.60;77.50;;;;;;4967216;28;20026;-74
2021/04/29 04:25:31;;;;;;;1.17;1.17;;;11.60;78.00;;;;;;4973432;28;20035;-73
2021/04/29 04:27:57;;;;;;;1.15;1.13;;;11.60;77.90;;;;;;4965815;28;20097;-73
2021/04/29 04:30:23;;;;;;;1.15;1.05;;;11.70;77.80;;;;;;4960209;28;20119;-73
2021/04/29 04:32:48;;;;;;;1.27;1.17;;;11.70;78.00;;;;;;4961603;28;20035;-74
2021/04/29 04:35:15;;;;;;;1.00;1.00;;;11.70;78.00;;;;;;4966226;28;20026;-74
2021/04/29 04:37:40;;;;;;;2.00;1.27;;;11.70;78.10;;;;;;4964000;28;20031;-74
2021/04/29 04:40:07;;;;;;;1.10;1.10;;;11.70;77.80;;;;;;4967869;28;20030;-74
2021/04/29 04:42:33;;;;;;;1.20;1.10;;;11.70;77.60;;;;;;4953595;28;20039;-74
2021/04/29 04:44:58;;;;;;;4.60;1.20;;;11.80;77.50;;;;;;4961773;28;20046;-72
2021/04/29 04:47:24;;;;;;;1.33;1.10;;;11.80;77.30;;;;;;4966627;28;20058;-74
2021/04/29 04:49:50;;;;;;;1.23;1.13;;;11.80;76.80;;;;;;4965190;28;20024;-75
2021/04/29 04:52:15;;;;;;;2.15;1.00;;;11.80;76.80;;;;;;4963524;28;20074;-74
2021/04/29 04:54:41;;;;;;;1.10;1.10;;;11.80;76.00;;;;;;4967619;28;20368;-74
2021/04/29 04:57:10;;;;;;;0.88;0.88;;;11.80;75.80;;;;;;4965459;28;20023;-74
2021/04/29 04:59:37;;;;;;;2.25;1.10;;;11.80;75.70;;;;;;4967755;28;20538;-74
2021/04/29 05:02:03;;;;;;;1.88;1.17;;;11.80;75.90;;;;;;4963386;28;20454;-73
2021/04/29 05:04:29;;;;;;;1.00;0.90;;;11.80;75.80;;;;;;4965043;28;20053;-74
2021/04/29 05:06:56;;;;;;;1.52;0.95;;;11.90;75.20;;;;;;4961754;28;20062;-74
2021/04/29 05:09:22;;;;;;;1.30;1.10;;;11.90;75.60;;;;;;4965715;28;20591;-74
2021/04/29 05:11:48;;;;;;;1.00;1.00;;;11.80;75.60;;;;;;4963664;28;20034;-74
2021/04/29 05:14:14;;;;;;;1.75;1.17;;;11.80;75.10;;;;;;4964414;28;20248;-73
2021/04/29 05:16:40;;;;;;;0.90;0.90;;;11.80;75.40;;;;;;4965491;28;20489;-73
2021/04/29 05:19:06;;;;;;;1.48;0.95;;;11.90;75.10;;;;;;4963488;28;20087;-74
2021/04/29 05:21:32;;;;;;;1.42;1.00;;;11.90;74.30;;;;;;4967935;28;20441;-74
2021/04/29 05:23:58;;;;;;;3.20;1.00;;;11.80;74.30;;;;;;4951092;28;20038;-73
2021/04/29 05:26:23;;;;;;;1.42;1.20;;;11.80;74.60;;;;;;4967025;28;20121;-74
2021/04/29 05:28:49;;;;;;;1.25;0.88;;;11.80;73.80;;;;;;4966808;28;20027;-75
2021/04/29 05:31:14;;;;;;;0.90;0.90;;;11.80;74.10;;;;;;4962446;28;20039;-74
2021/04/29 05:33:40;;;;;;;1.27;0.90;;;11.80;73.70;;;;;;4962063;28;20043;-75
2021/04/29 05:36:06;;;;;;;1.10;1.10;;;11.80;73.60;;;;;;4966033;28;20109;-74
2021/04/29 05:38:31;;;;;;;1.55;1.00;;;11.80;73.80;;;;;;4966255;28;20118;-74
2021/04/29 05:40:57;;;;;;;3.03;0.98;;;11.80;74.40;;;;;;4956882;28;20401;-74
2021/04/29 05:43:23;;;;;;;2.75;1.17;;;11.80;74.50;;;;;;4958744;28;20451;-74
2021/04/29 05:45:48;;;;;;;1.27;1.15;;;11.80;74.70;;;;;;4961195;28;20657;-75
2021/04/29 05:48:14;;;;;;;1.35;1.25;;;11.80;74.70;;;;;;4964866;28;20034;-74
2021/04/29 05:50:40;;;;;;;1.00;1.00;;;11.70;74.10;;;;;;4960649;28;20114;-75
2021/04/29 05:53:05;;;;;;;1.90;1.00;;;11.80;74.70;;;;;;4958704;28;20050;-74
2021/04/29 05:55:31;;;;;;;1.95;1.10;;;11.80;74.40;;;;;;4959375;28;20081;-74
2021/04/29 05:57:59;;;;;;;3.28;1.02;;;11.80;74.10;;;;;;4959918;28;20058;-73
2021/04/29 06:00:25;;;;;;;1.13;1.10;;;11.80;74.90;;;;;;4966934;28;20021;-74
2021/04/29 06:02:51;;;;;;;1.17;1.08;;;11.80;74.20;;;;;;4959077;28;20023;-75
2021/04/29 06:05:16;;;;;;;1.50;1.40;;;11.80;73.10;;;;;;4958116;28;20651;-74
2021/04/29 06:07:42;;;;;;;1.20;1.02;;;11.80;74.40;;;;;;4956133;28;20038;-74
2021/04/29 06:10:08;;;;;;;3.15;1.60;;;11.80;74.30;;;;;;4960872;28;20110;-74
2021/04/29 06:12:34;;;;;;;2.70;1.30;;;11.80;73.60;;;;;;4963631;28;20231;-75
2021/04/29 06:15:00;;;;;;;2.05;1.23;;;11.90;72.60;;;;;;4961568;28;20026;-74
2021/04/29 06:17:25;;;;;;;1.00;1.00;;;11.90;73.70;;;;;;4956961;28;20042;-75
2021/04/29 06:19:51;;;;;;;1.50;1.27;;;11.90;72.70;;;;;;4965613;28;20025;-75
2021/04/29 06:22:17;;;;;;;2.00;1.45;;;11.90;73.50;;;;;;4965371;28;20059;-74
2021/04/29 06:24:43;;;;;;;1.30;1.20;;;11.90;72.30;;;;;;4962944;28;20041;-75
2021/04/29 06:27:08;;;;;;;1.30;1.20;;;11.80;72.70;;;;;;4951653;28;20066;-75
2021/04/29 06:29:34;;;;;;;1.77;1.27;;;11.80;71.60;;;;;;4969696;28;20027;-74
2021/04/29 06:32:00;;;;;;;1.23;1.10;;;11.80;72.40;;;;;;4968753;28;20038;-75
2021/04/29 06:34:26;;;;;;;1.40;1.27;;;11.80;72.30;;;;;;4960659;28;20034;-75
2021/04/29 06:36:52;;;;;;;2.33;1.85;;;11.80;72.40;;;;;;4965139;28;20049;-74
2021/04/29 06:39:19;;;;;;;3.22;1.70;;;11.80;72.10;;;;;;4962004;28;20096;-75
2021/04/29 06:41:46;;;;;;;1.48;1.38;;;11.80;72.50;;;;;;4970970;28;20029;-74
2021/04/29 06:44:12;;;;;;;1.95;1.77;;;11.80;72.60;;;;;;4962432;28;20030;-73
2021/04/29 06:46:39;;;;;;;1.80;1.58;;;11.70;73.60;;;;;;4970244;28;20038;-75
2021/04/29 06:49:06;;;;;;;1.98;1.30;;;11.70;73.20;;;;;;4969253;28;20038;-75
2021/04/29 06:51:32;;;;;;;1.40;1.30;;;11.70;74.30;;;;;;4970595;28;20077;-75
2021/04/29 06:53:58;;;;;;;1.80;1.70;;;11.70;74.30;;;;;;4961178;28;20047;-75
2021/04/29 06:56:23;;;;;;;2.55;1.77;;;11.70;73.90;;;;;;4968319;28;20036;-74
2021/04/29 06:58:49;;;;;;;1.67;1.25;;;11.70;74.00;;;;;;4967145;28;20042;-75
2021/04/29 07:01:15;;;;;;;2.70;1.70;;;11.70;73.70;;;;;;4972197;28;20045;-75
2021/04/29 07:03:40;;;;;;;1.85;1.70;;;11.70;74.70;;;;;;4966332;28;20050;-74
2021/04/29 07:06:07;;;;;;;1.85;1.73;;;11.70;73.90;;;;;;4971008;28;20405;-75
2021/04/29 07:08:32;;;;;;;3.28;1.40;;;11.70;73.90;;;;;;4969511;28;20026;-74
2021/04/29 07:10:58;;;;;;;2.80;1.35;;;11.80;73.50;;;;;;4962787;28;20154;-74
2021/04/29 07:13:23;;;;;;;1.67;1.58;;;11.80;73.50;;;;;;4967810;28;20022;-75
2021/04/29 07:15:49;;;;;;;1.70;1.60;;;11.80;73.40;;;;;;4959382;28;20071;-75
2021/04/29 07:18:15;;;;;;;4.00;1.67;;;11.80;74.00;;;;;;4965931;28;20075;-73
2021/04/29 07:20:41;;;;;;;2.40;1.55;;;11.70;73.80;;;;;;4964950;28;20031;-73
2021/04/29 07:23:07;;;;;;;1.90;1.67;;;11.70;73.70;;;;;;4988153;28;20393;-75
2021/04/29 07:25:34;;;;;;;1.83;1.67;;;11.70;74.20;;;;;;4962833;28;20524;-75
2021/04/29 07:27:59;;;;;;;1.77;1.58;;;11.70;73.50;;;;;;4965386;28;20561;-75
2021/04/29 07:30:26;;;;;;;2.55;1.75;;;11.60;73.30;;;;;;4960177;28;20046;-74
2021/04/29 07:32:52;;;;;;;2.88;2.00;;;11.60;73.50;;;;;;4959794;28;20022;-75
2021/04/29 07:35:18;;;;;;;3.95;1.92;;;11.60;73.50;;;;;;4963495;28;20031;-75
2021/04/29 07:37:43;;;;;;;2.97;1.77;;;11.50;73.30;;;;;;4960359;28;20049;-75
2021/04/29 07:40:09;;;;;;;2.53;2.00;;;11.50;73.30;;;;;;4968405;28;20041;-75
2021/04/29 07:42:35;;;;;;;4.55;2.22;;;11.50;73.40;;;;;;4966213;28;20074;-75
2021/04/29 07:45:01;;;;;;;3.22;1.90;;;11.40;72.90;;;;;;4968816;28;20117;-74
2021/04/29 07:47:26;;;;;;;3.17;1.75;;;11.40;73.60;;;;;;4964685;28;20033;-75
2021/04/29 07:49:52;;;;;;;3.13;2.20;;;11.40;73.40;;;;;;4970043;28;20026;-75
2021/04/29 07:52:18;;;;;;;2.58;2.28;;;11.40;73.60;;;;;;4966601;28;20085;-74
2021/04/29 07:54:43;;;;;;;2.90;2.08;;;11.40;74.30;;;;;;4969710;28;20019;-74
2021/04/29 07:57:09;;;;;;;1.98;1.80;;;11.40;73.90;;;;;;4964988;28;20954;-75
2021/04/29 07:59:35;;;;;;;6.53;2.33;;;11.40;73.10;;;;;;4969535;28;20038;-75
2021/04/29 08:02:00;;;;;;;3.33;2.10;;;11.50;74.10;;;;;;4965089;28;20505;-75
2021/04/29 08:04:29;;;;;;;2.85;2.05;;;11.50;74.30;;;;;;4968996;28;20049;-75
2021/04/29 08:06:55;;;;;;;2.88;2.03;;;11.50;74.30;;;;;;4965974;28;20026;-74
2021/04/29 08:09:21;;;;;;;2.50;2.30;;;11.60;74.30;;;;;;4967217;28;20027;-74
2021/04/29 08:11:46;;;;;;;2.42;2.10;;;11.60;73.80;;;;;;4967474;28;20142;-75
2021/04/29 08:14:12;;;;;;;3.28;2.33;;;11.60;72.90;;;;;;4969061;28;20394;-75
2021/04/29 08:16:38;;;;;;;3.08;2.40;;;11.60;73.20;;;;;;4969716;28;20062;-76
2021/04/29 08:19:03;;;;;;;2.65;2.20;;;11.60;73.40;;;;;;4967327;28;20034;-75
2021/04/29 08:21:29;;;;;;;3.72;2.20;;;11.70;73.40;;;;;;4967400;28;20023;-74
2021/04/29 08:23:57;;;;;;;2.97;2.20;;;11.70;73.60;;;;;;4968102;28;20101;-74
2021/04/29 08:26:23;;;;;;;3.47;2.38;;;11.70;72.20;;;;;;4969318;28;20486;-73
2021/04/29 08:28:49;;;;;;;2.33;2.13;;;11.70;72.70;;;;;;4974036;28;20106;-74
2021/04/29 08:31:15;;;;;;;4.07;2.40;;;11.70;72.70;;;;;;4967650;28;20042;-75
2021/04/29 08:33:40;;;;;;;3.60;2.40;;;11.70;71.70;;;;;;4970279;28;20212;-75
2021/04/29 08:36:08;;;;;;;2.92;2.50;;;11.70;71.50;;;;;;4965094;28;20026;-75
2021/04/29 08:38:34;;;;;;;2.65;2.13;;;11.70;71.10;;;;;;4967535;28;20030;-75
2021/04/29 08:41:00;;;;;;;2.63;1.98;;;11.70;70.80;;;;;;4964963;28;20457;-74
2021/04/29 08:43:26;;;;;;;3.80;2.58;;;11.70;70.70;;;;;;4964819;28;20109;-74
2021/04/29 08:45:51;;;;;;;5.70;2.60;;;11.70;70.40;;;;;;4963277;28;20109;-75
2021/04/29 08:48:22;;;;;;;4.05;2.53;;;11.80;70.40;;;;;;4964348;28;20104;-74
2021/04/29 08:50:48;;;;;;;5.13;3.00;;;11.70;70.20;;;;;;4959649;28;20026;-74
2021/04/29 08:53:14;;;;;;;6.47;3.15;;;11.80;70.40;;;;;;4963022;28;20350;-74
2021/04/29 08:55:41;;;;;;;4.38;2.80;;;11.80;69.90;;;;;;4964745;28;20023;-75
2021/04/29 08:58:07;;;;;;;3.35;2.70;;;11.80;69.20;;;;;;4962271;28;20109;-75
2021/04/29 09:00:32;;;;;;;4.60;3.20;;;11.90;69.70;;;;;;4965050;28;20572;-75
2021/04/29 09:02:58;;;;;;;3.75;3.10;;;11.80;68.90;;;;;;4965310;28;20114;-75
2021/04/29 09:05:33;;;;;;;4.60;3.35;;;11.90;69.20;;;;;;4965487;28;20069;-75
2021/04/29 09:08:01;;;;;;;3.92;2.95;;;11.90;68.50;;;;;;4963184;28;20034;-74
2021/04/29 09:10:33;;;;;;;5.45;3.28;;;11.90;68.70;;;;;;4978947;28;20127;-75
2021/04/29 09:13:00;;;;;;;3.30;3.00;;;12.00;69.10;;;;;;4962839;28;20026;-74
2021/04/29 09:15:33;;;;;;;5.22;3.30;;;12.00;68.90;;;;;;4965690;28;20027;-75
2021/04/29 09:18:21;;;;;;;5.57;3.80;;;12.10;69.10;;;;;;4960153;28;20402;-73
2021/04/29 09:20:55;;;;;;;4.07;3.00;;;12.10;68.60;;;;;;4963005;28;20391;-74
2021/04/29 09:23:29;;;;;;;5.80;3.80;;;12.10;68.50;;;;;;4962691;28;20046;-73
2021/04/29 09:26:00;;;;;;;5.35;3.45;;;12.20;68.00;;;;;;4982411;28;20054;-75
2021/04/29 09:28:45;;;;;;;5.22;3.33;;;12.20;67.10;;;;;;4976823;28;20034;-75
2021/04/29 09:31:18;;;;;;;5.55;3.40;;;12.20;67.80;;;;;;4963646;28;20046;-75
2021/04/29 09:33:46;;;;;;;6.53;3.65;;;12.20;67.50;;;;;;4963460;28;20019;-75
2021/04/29 09:36:21;;;;;;;5.47;3.35;;;12.20;67.40;;;;;;4967808;28;20015;-75
2021/04/29 09:38:55;;;;;;;5.25;3.38;;;12.20;68.40;;;;;;4959588;28;20038;-74
2021/04/29 09:41:24;;;;;;;5.53;3.40;;;12.20;68.30;;;;;;4963460;28;20022;-75
2021/04/29 09:43:57;;;;;;;;;;;12.30;68.00;;;;;;4966530;28;20019;-75
2021/04/29 09:46:23;;;;;;;7.60;3.58;;;12.30;68.40;;;;;;4962644;28;20000;-75
2021/04/29 09:48:50;;;;;;;7.35;3.97;;;12.30;68.30;;;;;;4961770;28;20109;-74
2021/04/29 09:51:18;;;;;;;5.53;4.20;;;12.30;68.90;;;;;;4965688;28;20062;-74
2021/04/29 09:53:49;;;;;;;6.63;3.97;;;12.30;68.80;;;;;;4963055;28;20571;-74
2021/04/29 09:56:17;;;;;;;5.97;4.03;;;12.40;69.40;;;;;;4965373;28;20023;-75
2021/04/29 09:58:48;;;;;;;5.68;4.10;;;12.40;68.80;;;;;;4959635;28;20660;-74
2021/04/29 10:01:14;;;;;;;6.80;4.05;;;12.50;68.00;;;;;;4959243;28;20050;-74
2021/04/29 10:03:41;;;;;;;4.78;4.25;;;12.40;67.60;;;;;;4963512;28;20048;-74
2021/04/29 10:06:11;;;;;;;6.63;4.47;;;12.50;68.10;;;;;;4967364;28;20069;-75
2021/04/29 10:08:37;;;;;;;6.03;4.30;;;12.50;66.50;;;;;;4964757;28;20058;-75
2021/04/29 10:11:05;;;;;;;6.03;4.28;;;12.50;66.70;;;;;;4966424;28;20090;-74
2021/04/29 10:13:33;;;;;;;6.97;4.18;;;12.50;67.00;;;;;;4962940;28;20566;-74
2021/04/29 10:16:00;;;;;;;7.60;3.77;;;12.60;64.60;;;;;;4964553;28;20466;-73
2021/04/29 10:18:26;;;;;;;6.20;3.88;;;12.60;64.40;;;;;;4962392;28;20294;-73
2021/04/29 10:20:56;;;;;;;6.05;4.28;;;12.60;63.40;;;;;;4966757;28;20354;-73
2021/04/29 10:23:21;;;;;;;3.95;3.15;;;12.60;62.90;;;;;;4965173;28;20057;-74
2021/04/29 10:25:56;;;;;;;6.00;3.72;;;12.60;62.70;;;;;;4962288;28;20122;-75
2021/04/29 10:28:36;;;;;;;6.47;4.47;;;12.60;62.30;;;;;;4965671;28;20162;-73
2021/04/29 10:31:20;;;;;;;9.18;4.28;;;12.60;62.40;;;;;;4965156;28;20030;-75
2021/04/29 10:33:52;;;;;;;6.78;4.30;;;12.60;63.70;;;;;;4960318;28;20098;-75
2021/04/29 10:36:19;;;;;;;6.57;4.22;;;12.60;63.30;;;;;;4963129;28;20058;-75
2021/04/29 10:38:45;;;;;;;9.82;4.30;;;12.60;63.40;;;;;;4965484;28;20104;-74
2021/04/29 10:41:17;;;;;;;10.25;4.18;;;12.70;62.60;;;;;;4960525;28;20674;-74
2021/04/29 10:43:43;;;;;;;5.78;3.80;;;12.70;62.70;;;;;;4967065;28;20429;-73
2021/04/29 10:46:09;;;;;;;5.65;4.25;;;12.70;63.40;;;;;;4964532;28;20065;-72
2021/04/29 10:48:48;;;;;;;5.03;4.05;;;12.80;63.30;;;;;;4976550;28;20055;-74
2021/04/29 10:51:15;;;;;;;6.78;4.28;;;12.80;63.10;;;;;;4966135;28;20022;-75
2021/04/29 10:53:40;;;;;;;7.78;4.32;;;12.80;62.40;;;;;;4962039;28;20229;-74
2021/04/29 10:56:18;;;;;;;8.05;4.28;;;12.90;61.60;;;;;;4966102;28;20454;-74
2021/04/29 10:58:45;;;;;;;6.45;4.68;;;13.00;61.20;;;;;;4964865;28;20026;-74
2021/04/29 11:01:16;;;;;;;5.88;3.55;;;13.10;61.20;;;;;;4973797;28;20035;-74
2021/04/29 11:03:49;;;;;;;7.35;4.32;;;13.10;59.30;;;;;;4969100;28;20031;-74
2021/04/29 11:06:22;;;;;;;5.88;4.25;;;13.10;61.20;;;;;;4968835;28;20023;-74
2021/04/29 11:08:50;;;;;;;7.72;4.50;;;13.20;59.40;;;;;;4971872;28;20059;-74
2021/04/29 11:11:38;;;;;;;5.68;4.28;;;13.20;60.50;;;;;;4971480;28;20041;-73
2021/04/29 11:14:07;;;;;;;5.47;4.22;;;13.30;60.40;;;;;;4968233;28;20030;-74
2021/04/29 11:16:58;;;;;;;6.90;4.53;;;13.40;58.00;;;;;;4965872;28;20078;-73
2021/04/29 11:19:38;;;;;;;8.32;4.63;;;13.40;57.50;;;;;;4974815;28;20494;-74
2021/04/29 11:22:06;;;;;;;6.57;4.82;;;13.50;57.40;;;;;;4967485;28;20033;-74
2021/04/29 11:24:43;;;;;;;11.13;4.65;;;13.60;58.10;;;;;;4970417;28;20419;-74
2021/04/29 11:27:21;;;;;;;6.47;4.88;;;13.60;56.10;;;;;;4963823;28;20416;-74
2021/04/29 11:29:46;;;;;;;8.38;4.70;;;13.70;58.10;;;;;;4975132;28;20049;-74
2021/04/29 11:32:12;;;;;;;6.47;4.78;;;13.90;60.10;;;;;;4973686;28;20050;-73
2021/04/29 11:34:46;;;;;;;6.70;4.35;;;13.90;60.00;;;;;;4975953;28;20034;-73
2021/04/29 11:37:14;;;;;;;10.68;4.78;;;14.00;58.40;;;;;;4971837;28;20030;-74
2021/04/29 11:39:40;;;;;;;6.63;4.20;;;13.90;56.90;;;;;;4970623;28;20035;-75
2021/04/29 11:42:10;;;;;;;6.72;4.72;;;14.00;57.20;;;;;;4966150;28;20642;-74
2021/04/29 11:44:36;;;;;;;6.53;5.15;;;13.90;57.10;;;;;;4968606;28;20053;-74
2021/04/29 11:47:12;;;;;;;7.40;4.88;;;14.00;55.70;;;;;;4968589;28;20422;-75
2021/04/29 11:49:38;;;;;;;7.75;4.90;;;14.00;58.60;;;;;;4973870;28;20019;-75
2021/04/29 11:52:04;;;;;;;7.93;5.10;;;14.10;57.70;;;;;;4967693;28;20030;-75
2021/04/29 11:54:30;;;;;;;5.25;4.43;;;14.10;58.00;;;;;;4972894;28;20612;-75
2021/04/29 11:57:00;;;;;;;8.40;4.60;;;14.20;58.80;;;;;;4970289;28;20035;-76
2021/04/29 11:59:32;;;;;;;7.00;4.70;;;14.30;56.10;;;;;;4969317;28;20108;-76
2021/04/29 12:02:01;;;;;;;7.53;4.57;;;14.30;57.40;;;;;;4968249;28;20066;-75
2021/04/29 12:04:27;;;;;;;5.70;4.63;;;14.30;55.70;;;;;;4963540;28;20031;-75
2021/04/29 12:06:57;;;;;;;5.15;4.35;;;14.30;55.00;;;;;;4968168;28;20500;-74
2021/04/29 12:09:25;;;;;;;6.57;4.38;;;14.30;54.50;;;;;;4967261;28;20027;-74
2021/04/29 12:11:52;;;;;;;5.00;4.43;;;14.20;54.00;;;;;;4970062;28;20030;-74
2021/04/29 12:14:26;;;;;;;7.10;4.85;;;14.30;55.20;;;;;;4968869;28;20808;-73
2021/04/29 12:16:59;;;;;;;7.55;4.65;;;14.30;53.90;;;;;;4969343;28;22264;-75
2021/04/29 12:19:32;;;;;;;7.57;4.25;;;14.20;53.60;;;;;;4966052;28;21908;-75
2021/04/29 12:21:58;;;;;;;7.20;3.95;;;14.10;52.90;;;;;;4966986;28;20173;-74
2021/04/29 12:24:27;;;;;;;6.00;4.50;;;14.00;53.50;;;;;;4972195;28;20030;-75
2021/04/29 12:26:53;;;;;;;6.72;4.30;;;13.90;53.60;;;;;;4964484;28;20035;-75
2021/04/29 12:29:21;;;;;;;6.28;4.30;;;13.90;55.50;;;;;;4964421;28;20034;-75
2021/04/29 12:32:01;;;;;;;7.93;5.13;;;13.80;56.20;;;;;;4965162;28;20058;-75
2021/04/29 12:34:27;;;;;;;6.90;4.28;;;13.70;56.20;;;;;;4968202;28;20278;-76
2021/04/29 12:37:07;;;;;;;6.32;4.15;;;13.60;57.20;;;;;;4964660;28;20066;-75
2021/04/29 12:39:47;;;;;;;7.88;4.45;;;13.60;57.40;;;;;;4967390;28;20027;-75
2021/04/29 12:42:20;;;;;;;5.90;4.20;;;13.50;58.30;;;;;;4962192;28;20114;-75
2021/04/29 12:44:57;;;;;;;5.22;4.05;;;13.50;58.60;;;;;;4960833;28;20027;-74
2021/04/29 12:47:33;;;;;;;4.75;3.88;;;13.40;59.50;;;;;;4960560;28;20470;-74
2021/04/29 12:50:10;;;;;;;5.68;3.45;;;13.40;57.70;;;;;;4967599;28;20030;-74
2021/04/29 12:52:51;;;;;;;7.93;3.93;;;13.30;57.20;;;;;;4963390;28;20029;-75